createdAt,value
2023-05-22T21:42:12.178Z,15.25
2023-05-22T21:44:39.086Z,14.56
2023-05-22T21:47:05.906Z,14.13
2023-05-22T21:49:33.172Z,14.35
2023-05-22T21:51:59.808Z,14.68
2023-05-22T21:54:26.512Z,14.88
2023-05-22T21:56:53.206Z,15.00
2023-05-22T21:59:19.921Z,15.09
2023-05-22T22:01:46.583Z,15.15
2023-05-22T22:04:13.235Z,15.17
2023-05-22T22:06:39.871Z,15.18
2023-05-22T22:09:06.556Z,15.19
2023-05-22T22:11:33.125Z,15.21
2023-05-22T22:13:59.748Z,15.23
2023-05-22T22:16:27.892Z,15.23
2023-05-22T22:18:54.798Z,15.24
2023-05-22T22:21:21.714Z,15.24
2023-05-22T22:23:48.377Z,15.24
2023-05-22T22:26:14.976Z,15.23
2023-05-22T22:28:41.543Z,15.21
2023-05-22T22:31:08.119Z,15.17
2023-05-22T22:33:34.688Z,15.12
2023-05-22T22:36:01.884Z,15.09
2023-05-22T22:38:28.917Z,15.08
2023-05-22T22:40:55.636Z,15.05
2023-05-22T22:43:22.239Z,15.03
2023-05-22T22:45:48.896Z,15.00
2023-05-22T22:48:16.724Z,14.95
2023-05-22T22:50:44.103Z,14.90
2023-05-22T22:53:10.731Z,14.87
2023-05-22T22:55:37.746Z,14.84
2023-05-22T22:58:05.433Z,14.82
2023-05-22T23:00:32.226Z,14.79
2023-05-22T23:02:59.477Z,14.76
2023-05-22T23:05:26.163Z,14.77
2023-05-22T23:07:52.831Z,14.75
2023-05-22T23:10:19.592Z,14.74
2023-05-22T23:12:48.053Z,14.71
2023-05-22T23:15:15.834Z,14.64
2023-05-22T23:17:42.533Z,14.51
2023-05-22T23:20:10.531Z,14.41
2023-05-22T23:22:37.161Z,14.31
2023-05-22T23:25:03.921Z,14.25
2023-05-22T23:27:30.594Z,14.20
2023-05-22T23:29:58.177Z,14.13
2023-05-22T23:32:24.797Z,14.09
2023-05-22T23:34:51.641Z,14.07
2023-05-22T23:37:18.324Z,14.07
2023-05-22T23:39:44.882Z,14.07
2023-05-22T23:42:12.124Z,14.07
2023-05-22T23:44:38.754Z,14.04
2023-05-22T23:47:06.711Z,14.01
2023-05-22T23:49:33.672Z,13.98
2023-05-22T23:52:00.269Z,13.98
2023-05-22T23:54:26.830Z,13.98
2023-05-22T23:56:53.370Z,13.98
2023-05-22T23:59:20.002Z,13.96
